createdAt,value
2023-03-03T00:00:11.240Z,40.87
2023-03-03T00:02:41.403Z,44.93
2023-03-03T00:05:08.777Z,44.20
2023-03-03T00:07:35.603Z,43.87
2023-03-03T00:10:03.095Z,40.07
2023-03-03T00:12:31.243Z,38.87
2023-03-03T00:14:58.076Z,39.17
2023-03-03T00:17:27.763Z,39.23
2023-03-03T00:19:55.637Z,34.53
2023-03-03T00:22:40.513Z,34.60
2023-03-03T00:25:19.755Z,35.83
2023-03-03T00:27:47.101Z,36.43
2023-03-03T00:30:25.609Z,32.67
2023-03-03T00:32:56.802Z,43.90
2023-03-03T00:35:30.436Z,41.80
2023-03-03T00:38:00.167Z,38.40
2023-03-03T00:40:46.905Z,38.93
2023-03-03T00:43:21.593Z,34.33
2023-03-03T00:45:51.410Z,30.73
2023-03-03T00:48:31.600Z,33.17
2023-03-03T00:51:00.830Z,28.37
2023-03-03T00:53:30.186Z,35.17
2023-03-03T00:55:57.999Z,33.40
2023-03-03T00:58:26.058Z,33.90
2023-03-03T01:00:54.811Z,33.20
2023-03-03T01:03:27.374Z,33.67
2023-03-03T01:05:54.995Z,34.70
2023-03-03T01:08:22.678Z,29.80
2023-03-03T01:10:56.229Z,35.63
2023-03-03T01:13:28.398Z,33.10
2023-03-03T01:15:55.968Z,37.73
2023-03-03T01:18:22.893Z,39.90
2023-03-03T01:20:50.803Z,37.57
2023-03-03T01:23:18.420Z,36.87
2023-03-03T01:25:45.200Z,41.67
2023-03-03T01:28:12.400Z,37.73
2023-03-03T01:30:39.620Z,38.40
2023-03-03T01:33:06.406Z,42.70
2023-03-03T01:35:33.193Z,33.50
2023-03-03T01:37:59.894Z,36.03
2023-03-03T01:40:30.311Z,36.70
2023-03-03T01:42:59.817Z,37.43
2023-03-03T01:45:30.190Z,30.00
2023-03-03T01:48:01.777Z,30.20
2023-03-03T01:50:54.821Z,29.13
2023-03-03T01:53:59.587Z,27.50
2023-03-03T01:56:27.321Z,26.13
2023-03-03T01:59:26.349Z,32.00
2023-03-03T02:01:54.114Z,31.33
2023-03-03T02:04:22.081Z,39.90
2023-03-03T02:06:56.543Z,39.30
2023-03-03T02:09:38.622Z,35.73
2023-03-03T02:12:09.527Z,49.17
2023-03-03T02:14:36.922Z,43.67
2023-03-03T02:17:04.127Z,42.67
2023-03-03T02:19:32.181Z,40.80
2023-03-03T02:22:02.323Z,45.73
2023-03-03T02:24:37.819Z,44.33
2023-03-03T02:27:05.045Z,42.60
2023-03-03T02:29:31.989Z,50.10
2023-03-03T02:31:59.433Z,39.30
2023-03-03T02:34:26.689Z,39.23
2023-03-03T02:36:53.535Z,37.87
2023-03-03T02:39:23.772Z,40.87
2023-03-03T02:42:18.823Z,38.50
2023-03-03T02:44:50.726Z,41.20
2023-03-03T02:47:18.329Z,45.07
2023-03-03T02:49:45.284Z,41.37
2023-03-03T02:52:14.880Z,45.27
2023-03-03T02:54:45.076Z,42.70
2023-03-03T02:57:12.112Z,43.00
2023-03-03T02:59:38.799Z,47.47
2023-03-03T03:02:13.073Z,48.03
2023-03-03T03:04:40.426Z,40.97
2023-03-03T03:07:07.445Z,44.27
2023-03-03T03:09:36.851Z,41.03
2023-03-03T03:12:05.351Z,50.30
2023-03-03T03:14:34.381Z,44.83
2023-03-03T03:17:01.633Z,50.57
2023-03-03T03:19:29.245Z,45.07
2023-03-03T03:22:00.864Z,42.07
2023-03-03T03:24:28.655Z,44.57
2023-03-03T03:27:00.528Z,38.33
2023-03-03T03:29:28.466Z,40.37
2023-03-03T03:31:55.602Z,34.60
2023-03-03T03:34:22.533Z,36.30
2023-03-03T03:36:51.032Z,33.30
2023-03-03T03:39:19.060Z,30.60
2023-03-03T03:41:47.885Z,34.63
2023-03-03T03:44:15.088Z,40.00
2023-03-03T03:46:42.585Z,38.80
2023-03-03T03:49:10.493Z,41.67
2023-03-03T03:51:41.386Z,45.43
2023-03-03T03:54:11.050Z,43.50
2023-03-03T03:56:39.099Z,37.20
2023-03-03T03:59:07.706Z,37.77
2023-03-03T04:01:35.153Z,39.23
2023-03-03T04:04:03.093Z,33.87
2023-03-03T04:06:29.959Z,38.87
2023-03-03T04:08:57.717Z,36.60
2023-03-03T04:11:26.363Z,32.30
2023-03-03T04:13:53.409Z,33.07
2023-03-03T04:16:20.759Z,33.37
2023-03-03T04:18:47.550Z,35.53
2023-03-03T04:21:16.882Z,36.77
2023-03-03T04:23:45.493Z,38.97
2023-03-03T04:26:12.885Z,43.87
2023-03-03T04:28:40.827Z,44.33
2023-03-03T04:31:08.322Z,49.77
2023-03-03T04:33:35.187Z,48.07
2023-03-03T04:36:04.461Z,50.37
2023-03-03T04:38:31.413Z,47.80
2023-03-03T04:40:58.393Z,47.70
2023-03-03T04:43:28.206Z,47.53
2023-03-03T04:45:56.436Z,48.87
2023-03-03T04:48:23.556Z,44.93
2023-03-03T04:50:50.391Z,48.43
2023-03-03T04:53:17.237Z,53.37
2023-03-03T04:55:44.571Z,57.03
2023-03-03T04:58:11.686Z,51.57
2023-03-03T05:00:39.824Z,51.30
2023-03-03T05:03:10.881Z,56.20
2023-03-03T05:05:40.964Z,51.30
2023-03-03T05:08:08.272Z,47.90
2023-03-03T05:10:35.254Z,48.37
2023-03-03T05:13:02.075Z,46.60
2023-03-03T05:15:28.969Z,52.60
2023-03-03T05:17:56.639Z,50.57
2023-03-03T05:20:24.860Z,45.40
2023-03-03T05:22:52.459Z,47.10
2023-03-03T05:25:20.979Z,49.57
2023-03-03T05:27:47.730Z,45.97
2023-03-03T05:30:14.980Z,45.40
2023-03-03T05:32:41.762Z,46.83
2023-03-03T05:35:08.912Z,45.43
2023-03-03T05:37:35.671Z,51.23
2023-03-03T05:40:02.480Z,52.77
2023-03-03T05:42:29.586Z,51.73
2023-03-03T05:44:56.498Z,43.07
2023-03-03T05:47:23.701Z,47.93
2023-03-03T05:49:50.470Z,52.43
2023-03-03T05:52:17.166Z,45.03
2023-03-03T05:54:43.893Z,47.70
2023-03-03T05:57:10.660Z,50.47
2023-03-03T05:59:37.606Z,57.50
2023-03-03T06:02:04.578Z,53.20
2023-03-03T06:04:31.306Z,46.03
2023-03-03T06:06:58.764Z,53.87
2023-03-03T06:09:26.413Z,47.20
2023-03-03T06:11:53.656Z,49.60
2023-03-03T06:14:21.218Z,48.23
2023-03-03T06:16:48.710Z,59.10
2023-03-03T06:19:15.772Z,62.93
2023-03-03T06:21:43.179Z,58.63
2023-03-03T06:24:10.332Z,55.13
2023-03-03T06:26:37.089Z,54.57
2023-03-03T06:29:04.052Z,59.77
2023-03-03T06:31:30.828Z,55.90
2023-03-03T06:33:57.662Z,55.20
2023-03-03T06:36:25.610Z,58.63
2023-03-03T06:38:53.286Z,50.63
2023-03-03T06:41:20.036Z,57.37
2023-03-03T06:43:46.784Z,54.67
2023-03-03T06:46:14.414Z,55.33
2023-03-03T06:48:42.019Z,53.53
2023-03-03T06:51:33.623Z,57.30
2023-03-03T06:54:06.644Z,63.47
2023-03-03T06:56:37.255Z,51.30
2023-03-03T06:59:13.012Z,58.13
2023-03-03T07:01:39.889Z,55.60
2023-03-03T07:04:29.437Z,55.63
2023-03-03T07:06:59.793Z,60.73
2023-03-03T07:09:29.630Z,54.40
2023-03-03T07:12:16.522Z,57.63
2023-03-03T07:14:51.653Z,56.33
2023-03-03T07:17:20.841Z,53.93
2023-03-03T07:19:48.243Z,55.07
2023-03-03T07:22:16.748Z,60.83
2023-03-03T07:24:46.303Z,51.90
2023-03-03T07:27:23.162Z,65.70
2023-03-03T07:29:52.699Z,57.57
2023-03-03T07:32:31.281Z,61.83
2023-03-03T07:34:58.314Z,52.07
2023-03-03T07:37:41.276Z,55.30
2023-03-03T07:40:26.558Z,50.63
2023-03-03T07:42:53.367Z,55.93
2023-03-03T07:45:34.956Z,62.33
2023-03-03T07:48:15.985Z,66.33
2023-03-03T07:50:42.753Z,53.20
2023-03-03T07:53:21.917Z,54.10
2023-03-03T07:55:48.688Z,55.73
2023-03-03T07:58:22.367Z,61.43
2023-03-03T08:01:27.507Z,62.77
2023-03-03T08:03:55.973Z,58.43
2023-03-03T08:06:35.571Z,68.03
2023-03-03T08:09:26.631Z,67.00
2023-03-03T08:12:23.344Z,66.50
2023-03-03T08:14:52.569Z,58.87
2023-03-03T08:17:25.147Z,57.10
2023-03-03T08:19:54.120Z,61.20
2023-03-03T08:22:33.913Z,64.93
2023-03-03T08:25:00.624Z,57.90
2023-03-03T08:27:28.117Z,70.93
2023-03-03T08:29:55.520Z,65.77
2023-03-03T08:32:22.886Z,60.47
2023-03-03T08:34:49.712Z,68.13
2023-03-03T08:37:17.082Z,65.27
2023-03-03T08:39:44.274Z,61.23
2023-03-03T08:42:11.034Z,61.17
2023-03-03T08:44:37.844Z,58.37
2023-03-03T08:47:04.597Z,63.97
2023-03-03T08:49:31.860Z,67.30
2023-03-03T08:52:00.846Z,61.37
2023-03-03T08:54:27.890Z,55.83
2023-03-03T08:56:54.599Z,60.63
2023-03-03T08:59:22.316Z,59.30
2023-03-03T09:01:49.181Z,67.20
2023-03-03T09:04:16.005Z,58.53
2023-03-03T09:06:42.762Z,64.83
2023-03-03T09:09:09.660Z,62.17
2023-03-03T09:11:36.513Z,71.93
2023-03-03T09:14:15.232Z,67.93
2023-03-03T09:16:49.857Z,59.77
2023-03-03T09:19:25.717Z,59.77
2023-03-03T09:21:57.421Z,61.60
2023-03-03T09:24:35.893Z,61.90
2023-03-03T09:27:03.042Z,56.23
2023-03-03T09:29:37.336Z,64.13
2023-03-03T09:32:26.945Z,63.60
2023-03-03T09:34:54.138Z,64.23
2023-03-03T09:37:28.833Z,60.37
2023-03-03T09:39:58.082Z,61.30
2023-03-03T09:42:56.980Z,58.00
2023-03-03T09:45:42.144Z,59.20
2023-03-03T09:48:18.033Z,54.97
2023-03-03T09:51:25.057Z,57.80
2023-03-03T09:54:07.931Z,60.47
2023-03-03T09:56:44.794Z,55.73
2023-03-03T09:59:20.684Z,61.93
2023-03-03T10:01:56.649Z,57.27
2023-03-03T10:04:35.281Z,59.73
2023-03-03T10:07:38.927Z,55.77
2023-03-03T10:10:28.522Z,55.63
2023-03-03T10:13:07.189Z,55.97
2023-03-03T10:15:43.191Z,53.83
2023-03-03T10:18:19.877Z,58.73
2023-03-03T10:20:58.554Z,58.00
2023-03-03T10:23:34.490Z,56.07
2023-03-03T10:26:08.362Z,57.17
2023-03-03T10:28:38.519Z,55.63
2023-03-03T10:31:20.087Z,59.93
2023-03-03T10:33:54.945Z,55.43
2023-03-03T10:36:24.798Z,55.27
2023-03-03T10:39:05.967Z,50.57
2023-03-03T10:41:35.527Z,56.53
2023-03-03T10:44:16.889Z,57.17
2023-03-03T10:46:49.598Z,55.17
2023-03-03T10:49:33.969Z,54.60
2023-03-03T10:52:09.571Z,55.50
2023-03-03T10:54:45.519Z,54.10
2023-03-03T10:57:31.124Z,53.93
2023-03-03T11:00:23.787Z,52.60
2023-03-03T11:03:32.059Z,51.80
2023-03-03T11:06:02.609Z,55.07
2023-03-03T11:08:29.904Z,55.27
2023-03-03T11:11:22.066Z,53.10
2023-03-03T11:14:02.358Z,55.57
2023-03-03T11:16:54.370Z,54.90
2023-03-03T11:19:41.033Z,57.87
2023-03-03T11:22:29.926Z,52.70
2023-03-03T11:25:15.060Z,51.83
2023-03-03T11:27:54.590Z,59.03
2023-03-03T11:30:35.525Z,53.70
2023-03-03T11:33:17.718Z,53.53
2023-03-03T11:35:51.439Z,51.43
2023-03-03T11:38:28.866Z,53.00
2023-03-03T11:41:00.226Z,48.50
2023-03-03T11:43:37.888Z,49.47
2023-03-03T11:46:30.392Z,56.87
2023-03-03T11:49:06.774Z,53.87
2023-03-03T11:51:42.801Z,50.53
2023-03-03T11:54:29.168Z,53.90
2023-03-03T11:57:15.325Z,55.17
2023-03-03T11:59:51.710Z,50.40
2023-03-03T12:02:44.187Z,50.60
2023-03-03T12:05:40.084Z,53.37
2023-03-03T12:08:35.955Z,57.33
2023-03-03T12:11:12.022Z,50.70
2023-03-03T12:14:06.844Z,51.10
2023-03-03T12:16:56.619Z,48.37
2023-03-03T12:19:41.679Z,50.00
2023-03-03T12:22:26.772Z,50.37
2023-03-03T12:25:19.577Z,45.80
2023-03-03T12:28:19.497Z,49.37
2023-03-03T12:31:07.793Z,49.13
2023-03-03T12:33:57.123Z,53.70
2023-03-03T12:36:50.809Z,49.57
2023-03-03T12:39:35.470Z,47.80
2023-03-03T12:42:18.261Z,44.33
2023-03-03T12:44:55.980Z,52.37
2023-03-03T12:47:33.228Z,47.10
2023-03-03T12:50:19.621Z,51.15
2023-03-03T12:53:20.519Z,41.13
2023-03-03T12:56:13.276Z,46.00
2023-03-03T12:58:57.083Z,47.60
2023-03-03T13:01:43.559Z,47.97
2023-03-03T13:04:19.928Z,46.80
2023-03-03T13:07:04.930Z,44.63
2023-03-03T13:09:40.300Z,45.07
2023-03-03T13:12:34.586Z,45.83
2023-03-03T13:15:21.351Z,46.63
2023-03-03T13:18:15.750Z,48.83
2023-03-03T13:20:50.544Z,47.57
2023-03-03T13:23:42.658Z,42.73
2023-03-03T13:26:32.101Z,42.50
2023-03-03T13:29:37.212Z,43.83
2023-03-03T13:32:11.843Z,45.40
2023-03-03T13:34:55.880Z,44.30
2023-03-03T13:37:42.513Z,48.83
2023-03-03T13:40:43.661Z,49.17
2023-03-03T13:43:18.969Z,42.83
2023-03-03T13:46:17.216Z,48.47
2023-03-03T13:48:52.706Z,45.53
2023-03-03T13:51:42.426Z,45.00
2023-03-03T13:54:37.006Z,45.70
2023-03-03T13:57:06.581Z,50.77
2023-03-03T13:59:57.842Z,46.37
2023-03-03T14:03:09.220Z,48.80
2023-03-03T14:05:44.324Z,49.30
2023-03-03T14:08:13.875Z,50.33
2023-03-03T14:11:07.526Z,46.30
2023-03-03T14:14:04.110Z,46.97
2023-03-03T14:16:48.020Z,52.30
2023-03-03T14:19:20.375Z,46.33
2023-03-03T14:22:20.123Z,50.60
2023-03-03T14:25:08.562Z,53.27
2023-03-03T14:28:01.095Z,51.47
2023-03-03T14:30:29.434Z,45.07
2023-03-03T14:33:19.364Z,49.17
2023-03-03T14:36:04.505Z,50.53
2023-03-03T14:38:34.417Z,46.63
2023-03-03T14:41:14.398Z,48.57
2023-03-03T14:43:44.123Z,42.43
2023-03-03T14:46:30.487Z,46.73
2023-03-03T14:49:05.411Z,47.13
2023-03-03T14:51:48.136Z,45.47
2023-03-03T14:54:28.420Z,43.03
2023-03-03T14:57:15.290Z,42.80
2023-03-03T15:00:06.920Z,43.77
2023-03-03T15:02:52.092Z,46.67
2023-03-03T15:05:28.767Z,48.33
2023-03-03T15:07:58.964Z,48.63
2023-03-03T15:10:44.368Z,43.93
2023-03-03T15:13:19.905Z,41.17
2023-03-03T15:16:01.057Z,42.93
2023-03-03T15:18:32.525Z,40.90
2023-03-03T15:21:07.808Z,46.20
2023-03-03T15:23:43.690Z,53.80
2023-03-03T15:26:19.972Z,44.67
2023-03-03T15:28:59.703Z,51.00
2023-03-03T15:31:51.077Z,48.73
2023-03-03T15:34:29.998Z,41.27
2023-03-03T15:37:08.740Z,48.73
2023-03-03T15:39:50.011Z,49.77
2023-03-03T15:42:40.175Z,43.97
2023-03-03T15:45:31.973Z,47.73
2023-03-03T15:48:10.953Z,45.80
2023-03-03T15:50:57.022Z,52.67
2023-03-03T15:53:32.949Z,48.93
2023-03-03T15:56:06.466Z,51.03
2023-03-03T15:58:36.548Z,49.03
2023-03-03T16:01:31.822Z,46.37
2023-03-03T16:04:10.461Z,47.77
2023-03-03T16:06:38.272Z,40.30
2023-03-03T16:09:17.039Z,57.47
2023-03-03T16:11:58.074Z,47.80
2023-03-03T16:14:52.750Z,40.73
2023-03-03T16:17:25.946Z,47.27
2023-03-03T16:20:15.913Z,42.77
2023-03-03T16:23:14.342Z,46.07
2023-03-03T16:25:43.675Z,43.23
2023-03-03T16:28:14.446Z,50.40
2023-03-03T16:30:53.984Z,43.90
2023-03-03T16:33:44.991Z,40.33
2023-03-03T16:36:17.525Z,35.10
2023-03-03T16:38:57.321Z,32.37
2023-03-03T16:41:47.334Z,39.47
2023-03-03T16:44:35.789Z,39.27
2023-03-03T16:47:40.462Z,37.53
2023-03-03T16:50:26.404Z,45.23
2023-03-03T16:53:19.293Z,44.43
2023-03-03T16:56:02.137Z,40.60
2023-03-03T16:58:37.874Z,43.53
2023-03-03T17:01:04.671Z,43.83
2023-03-03T17:03:40.258Z,46.20
2023-03-03T17:06:21.097Z,40.07
2023-03-03T17:09:05.994Z,45.17
2023-03-03T17:12:00.822Z,44.13
2023-03-03T17:14:49.750Z,46.83
2023-03-03T17:17:51.120Z,53.53
2023-03-03T17:20:26.990Z,46.13
2023-03-03T17:23:21.163Z,45.23
2023-03-03T17:26:10.252Z,50.77
2023-03-03T17:28:55.905Z,60.03
2023-03-03T17:31:38.059Z,51.57
2023-03-03T17:34:08.894Z,47.50
2023-03-03T17:36:50.170Z,44.67
2023-03-03T17:39:28.912Z,49.90
2023-03-03T17:42:06.484Z,48.80
2023-03-03T17:44:48.381Z,48.73
2023-03-03T17:47:47.335Z,47.03
2023-03-03T17:50:29.045Z,51.87
2023-03-03T17:53:07.789Z,47.83
2023-03-03T17:55:53.499Z,47.93
2023-03-03T17:58:42.760Z,55.77
2023-03-03T18:01:53.740Z,62.67
2023-03-03T18:05:01.672Z,54.00
2023-03-03T18:07:47.434Z,59.53
2023-03-03T18:10:26.413Z,62.40
2023-03-03T18:13:24.602Z,58.40
2023-03-03T18:16:11.499Z,57.83
2023-03-03T18:19:07.018Z,62.93
2023-03-03T18:21:51.907Z,58.27
2023-03-03T18:24:36.926Z,62.83
2023-03-03T18:27:40.401Z,60.37
2023-03-03T18:30:24.991Z,53.83
2023-03-03T18:32:57.818Z,50.13
2023-03-03T18:35:34.896Z,55.97
2023-03-03T18:38:23.509Z,56.63
2023-03-03T18:41:00.949Z,65.13
2023-03-03T18:43:40.272Z,63.80
2023-03-03T18:46:25.309Z,66.50
2023-03-03T18:49:03.620Z,60.07
2023-03-03T18:51:39.648Z,55.47
2023-03-03T18:54:12.445Z,51.37
2023-03-03T18:56:46.314Z,56.90
2023-03-03T18:59:31.265Z,64.03
2023-03-03T19:02:29.701Z,57.50
2023-03-03T19:05:08.934Z,60.00
2023-03-03T19:08:01.060Z,61.50
2023-03-03T19:10:39.764Z,68.57
2023-03-03T19:13:47.037Z,93.13
2023-03-03T19:16:25.769Z,68.67
2023-03-03T19:18:52.630Z,68.37
2023-03-03T19:21:28.405Z,66.13
2023-03-03T19:24:06.219Z,68.33
2023-03-03T19:26:55.771Z,71.33
2023-03-03T19:29:25.557Z,64.67
2023-03-03T19:32:13.886Z,63.40
2023-03-03T19:34:46.817Z,64.97
2023-03-03T19:37:23.089Z,62.70
2023-03-03T19:40:03.067Z,67.37
2023-03-03T19:42:58.726Z,60.50
2023-03-03T19:45:37.891Z,74.67
2023-03-03T19:48:16.210Z,72.10
2023-03-03T19:50:50.710Z,65.57
2023-03-03T19:53:39.624Z,67.80
2023-03-03T19:56:15.104Z,69.77
2023-03-03T19:59:13.729Z,66.73
2023-03-03T20:01:50.874Z,69.60
2023-03-03T20:04:44.464Z,61.03
2023-03-03T20:07:15.879Z,67.67
2023-03-03T20:09:55.700Z,64.80
2023-03-03T20:13:07.034Z,70.33
2023-03-03T20:15:54.826Z,64.63
2023-03-03T20:18:58.918Z,74.80
2023-03-03T20:21:33.500Z,66.67
2023-03-03T20:24:18.708Z,71.23
2023-03-03T20:26:58.379Z,63.47
2023-03-03T20:29:45.065Z,64.47
2023-03-03T20:32:55.134Z,70.53
2023-03-03T20:35:47.572Z,72.20
2023-03-03T20:38:14.230Z,68.80
2023-03-03T20:41:08.668Z,67.73
2023-03-03T20:43:58.631Z,70.00
2023-03-03T20:46:38.615Z,72.40
2023-03-03T20:49:45.157Z,70.77
2023-03-03T20:52:31.113Z,72.63
2023-03-03T20:55:13.548Z,87.80
2023-03-03T20:58:00.846Z,67.93
2023-03-03T21:00:51.474Z,70.17
2023-03-03T21:03:34.979Z,71.00
2023-03-03T21:06:09.856Z,73.37
2023-03-03T21:08:42.774Z,73.00
2023-03-03T21:11:10.538Z,78.77
2023-03-03T21:13:44.062Z,77.43
2023-03-03T21:16:25.813Z,83.83
2023-03-03T21:19:01.544Z,86.33
2023-03-03T21:21:30.444Z,80.23
2023-03-03T21:23:59.098Z,81.37
2023-03-03T21:26:46.909Z,83.77
2023-03-03T21:29:28.873Z,84.00
2023-03-03T21:32:04.559Z,81.23
2023-03-03T21:34:33.933Z,83.27
2023-03-03T21:37:17.201Z,78.50
2023-03-03T21:39:44.605Z,88.87
2023-03-03T21:42:14.515Z,80.97
2023-03-03T21:44:46.726Z,91.27
2023-03-03T21:47:15.627Z,77.80
2023-03-03T21:49:43.647Z,84.33
2023-03-03T21:52:12.590Z,81.33
2023-03-03T21:54:40.530Z,85.80
2023-03-03T21:57:07.988Z,83.53
2023-03-03T21:59:34.694Z,83.87
2023-03-03T22:02:01.478Z,72.77
2023-03-03T22:04:28.260Z,82.37
2023-03-03T22:06:55.853Z,84.37
2023-03-03T22:09:23.101Z,78.70
2023-03-03T22:11:49.835Z,75.43
2023-03-03T22:14:16.642Z,87.77
2023-03-03T22:16:43.804Z,83.23
2023-03-03T22:19:11.127Z,75.23
2023-03-03T22:21:39.680Z,70.80
2023-03-03T22:24:08.186Z,78.70
2023-03-03T22:26:35.437Z,72.13
2023-03-03T22:29:02.482Z,82.57
2023-03-03T22:31:29.335Z,79.53
2023-03-03T22:33:56.207Z,82.00
2023-03-03T22:36:23.576Z,85.20
2023-03-03T22:38:50.465Z,76.23
2023-03-03T22:41:17.679Z,78.77
2023-03-03T22:43:44.563Z,73.00
2023-03-03T22:46:11.835Z,81.43
2023-03-03T22:48:39.166Z,77.37
2023-03-03T22:51:06.798Z,77.10
2023-03-03T22:53:33.825Z,91.03
2023-03-03T22:56:00.636Z,81.43
2023-03-03T22:58:27.512Z,87.97
2023-03-03T23:00:54.951Z,80.80
2023-03-03T23:03:21.914Z,87.90
2023-03-03T23:05:51.477Z,87.73
2023-03-03T23:08:20.324Z,91.37
2023-03-03T23:10:47.595Z,86.67
2023-03-03T23:13:14.478Z,93.73
2023-03-03T23:15:41.349Z,88.47
2023-03-03T23:18:08.805Z,79.30
2023-03-03T23:20:35.719Z,83.47
2023-03-03T23:23:03.039Z,84.93
2023-03-03T23:25:30.306Z,81.37
2023-03-03T23:27:57.610Z,82.53
2023-03-03T23:30:25.255Z,78.57
2023-03-03T23:32:52.393Z,83.23
2023-03-03T23:35:19.636Z,84.13
2023-03-03T23:37:46.524Z,86.80
2023-03-03T23:40:15.802Z,77.37
2023-03-03T23:42:43.591Z,87.80
2023-03-03T23:45:11.621Z,83.67
2023-03-03T23:47:38.642Z,83.77
2023-03-03T23:50:06.229Z,80.87
2023-03-03T23:52:33.056Z,82.20
2023-03-03T23:54:59.921Z,86.23
2023-03-03T23:57:26.830Z,81.27
2023-03-03T23:59:53.604Z,72.20
